sensor_id;sensor_type;location;lat;lon;timestamp;temperature;humidity
22290;DHT22;11313;50.116;8.424;2023-02-15T00:01:42;25.10;39.10
22290;DHT22;11313;50.116;8.424;2023-02-15T00:04:09;25.10;39.10
22290;DHT22;11313;50.116;8.424;2023-02-15T00:06:35;25.10;39.10
22290;DHT22;11313;50.116;8.424;2023-02-15T00:09:01;25.10;39.10
22290;DHT22;11313;50.116;8.424;2023-02-15T00:11:28;25.10;39.10
22290;DHT22;11313;50.116;8.424;2023-02-15T00:14:08;25.10;39.10
22290;DHT22;11313;50.116;8.424;2023-02-15T00:16:34;25.10;39.10
22290;DHT22;11313;50.116;8.424;2023-02-15T00:19:00;25.10;39.10
22290;DHT22;11313;50.116;8.424;2023-02-15T00:21:30;25.10;39.10
22290;DHT22;11313;50.116;8.424;2023-02-15T00:23:56;25.10;39.20
22290;DHT22;11313;50.116;8.424;2023-02-15T00:26:23;25.10;39.20
22290;DHT22;11313;50.116;8.424;2023-02-15T00:28:49;25.10;39.10
22290;DHT22;11313;50.116;8.424;2023-02-15T00:31:14;25.10;39.10
22290;DHT22;11313;50.116;8.424;2023-02-15T00:33:40;25.10;39.20
22290;DHT22;11313;50.116;8.424;2023-02-15T00:36:08;25.10;39.20
22290;DHT22;11313;50.116;8.424;2023-02-15T00:38:34;25.10;39.20
22290;DHT22;11313;50.116;8.424;2023-02-15T00:41:02;25.00;39.10
22290;DHT22;11313;50.116;8.424;2023-02-15T00:43:29;25.00;39.20
22290;DHT22;11313;50.116;8.424;2023-02-15T00:45:54;25.00;39.20
22290;DHT22;11313;50.116;8.424;2023-02-15T00:48:21;25.00;39.20
22290;DHT22;11313;50.116;8.424;2023-02-15T00:50:49;25.00;39.20
22290;DHT22;11313;50.116;8.424;2023-02-15T00:53:15;25.10;39.20
22290;DHT22;11313;50.116;8.424;2023-02-15T00:55:41;25.00;39.20
22290;DHT22;11313;50.116;8.424;2023-02-15T00:58:08;25.00;39.20
22290;DHT22;11313;50.116;8.424;2023-02-15T01:00:34;25.00;39.20
22290;DHT22;11313;50.116;8.424;2023-02-15T01:03:00;25.10;39.20
22290;DHT22;11313;50.116;8.424;2023-02-15T01:05:25;25.10;39.20
22290;DHT22;11313;50.116;8.424;2023-02-15T01:07:51;25.00;39.20
22290;DHT22;11313;50.116;8.424;2023-02-15T01:10:17;25.00;39.20
22290;DHT22;11313;50.116;8.424;2023-02-15T01:12:42;25.10;39.20
22290;DHT22;11313;50.116;8.424;2023-02-15T01:15:08;25.00;39.20
22290;DHT22;11313;50.116;8.424;2023-02-15T01:17:34;25.00;39.20
22290;DHT22;11313;50.116;8.424;2023-02-15T01:19:59;25.00;39.20
22290;DHT22;11313;50.116;8.424;2023-02-15T01:22:25;25.10;39.20
22290;DHT22;11313;50.116;8.424;2023-02-15T01:24:51;25.10;39.20
22290;DHT22;11313;50.116;8.424;2023-02-15T01:27:17;25.10;39.20
22290;DHT22;11313;50.116;8.424;2023-02-15T01:29:42;25.10;39.20
22290;DHT22;11313;50.116;8.424;2023-02-15T01:32:08;25.10;39.80
22290;DHT22;11313;50.116;8.424;2023-02-15T01:34:33;25.10;39.20
22290;DHT22;11313;50.116;8.424;2023-02-15T01:36:59;25.10;39.20
22290;DHT22;11313;50.116;8.424;2023-02-15T01:39:24;25.10;39.20
22290;DHT22;11313;50.116;8.424;2023-02-15T01:41:50;25.10;39.10
22290;DHT22;11313;50.116;8.424;2023-02-15T01:49:48;25.10;39.10
22290;DHT22;11313;50.116;8.424;2023-02-15T01:52:17;25.10;39.00
22290;DHT22;11313;50.116;8.424;2023-02-15T01:54:44;25.10;39.10
22290;DHT22;11313;50.116;8.424;2023-02-15T01:57:15;25.20;39.10
22290;DHT22;11313;50.116;8.424;2023-02-15T01:59:44;25.20;39.10
22290;DHT22;11313;50.116;8.424;2023-02-15T02:02:12;25.20;39.10
22290;DHT22;11313;50.116;8.424;2023-02-15T02:04:46;25.20;39.00
22290;DHT22;11313;50.116;8.424;2023-02-15T02:07:14;25.20;39.10
22290;DHT22;11313;50.116;8.424;2023-02-15T02:09:40;25.20;39.00
22290;DHT22;11313;50.116;8.424;2023-02-15T02:12:07;25.20;39.00
22290;DHT22;11313;50.116;8.424;2023-02-15T02:14:33;25.30;39.00
22290;DHT22;11313;50.116;8.424;2023-02-15T02:17:10;25.30;39.00
22290;DHT22;11313;50.116;8.424;2023-02-15T02:19:54;25.20;38.90
22290;DHT22;11313;50.116;8.424;2023-02-15T02:34:28;25.30;38.90
22290;DHT22;11313;50.116;8.424;2023-02-15T02:40:02;25.40;38.90
22290;DHT22;11313;50.116;8.424;2023-02-15T02:42:42;25.30;38.80
22290;DHT22;11313;50.116;8.424;2023-02-15T02:45:20;25.30;38.80
22290;DHT22;11313;50.116;8.424;2023-02-15T02:47:53;25.40;38.90
22290;DHT22;11313;50.116;8.424;2023-02-15T02:50:27;25.30;38.80
22290;DHT22;11313;50.116;8.424;2023-02-15T02:52:55;25.40;38.80
22290;DHT22;11313;50.116;8.424;2023-02-15T02:55:28;25.40;38.90
22290;DHT22;11313;50.116;8.424;2023-02-15T02:58:06;25.40;38.80
22290;DHT22;11313;50.116;8.424;2023-02-15T03:00:38;25.40;38.80
22290;DHT22;11313;50.116;8.424;2023-02-15T03:03:10;25.40;38.80
22290;DHT22;11313;50.116;8.424;2023-02-15T03:05:40;25.30;38.80
22290;DHT22;11313;50.116;8.424;2023-02-15T03:08:07;25.40;38.80
22290;DHT22;11313;50.116;8.424;2023-02-15T03:10:36;25.40;38.80
22290;DHT22;11313;50.116;8.424;2023-02-15T03:13:03;25.40;38.80
22290;DHT22;11313;50.116;8.424;2023-02-15T03:15:37;25.40;38.80
22290;DHT22;11313;50.116;8.424;2023-02-15T03:18:25;25.40;38.80
22290;DHT22;11313;50.116;8.424;2023-02-15T03:20:52;25.40;38.90
22290;DHT22;11313;50.116;8.424;2023-02-15T03:23:23;25.40;38.80
22290;DHT22;11313;50.116;8.424;2023-02-15T03:25:52;25.40;38.90
22290;DHT22;11313;50.116;8.424;2023-02-15T03:28:27;25.40;38.90
22290;DHT22;11313;50.116;8.424;2023-02-15T03:30:56;25.40;38.90
22290;DHT22;11313;50.116;8.424;2023-02-15T03:33:26;25.40;38.90
22290;DHT22;11313;50.116;8.424;2023-02-15T03:36:18;25.40;38.90
22290;DHT22;11313;50.116;8.424;2023-02-15T03:41:29;25.40;38.80
22290;DHT22;11313;50.116;8.424;2023-02-15T03:44:02;25.30;38.80
22290;DHT22;11313;50.116;8.424;2023-02-15T03:46:45;25.40;38.90
22290;DHT22;11313;50.116;8.424;2023-02-15T03:49:19;25.30;38.90
22290;DHT22;11313;50.116;8.424;2023-02-15T03:51:48;25.40;38.90
22290;DHT22;11313;50.116;8.424;2023-02-15T03:54:18;25.30;38.90
22290;DHT22;11313;50.116;8.424;2023-02-15T03:57:07;25.40;38.90
22290;DHT22;11313;50.116;8.424;2023-02-15T03:59:52;25.30;38.90
22290;DHT22;11313;50.116;8.424;2023-02-15T04:02:44;25.30;38.90
22290;DHT22;11313;50.116;8.424;2023-02-15T04:05:10;25.30;38.90
22290;DHT22;11313;50.116;8.424;2023-02-15T04:07:35;25.30;38.90
22290;DHT22;11313;50.116;8.424;2023-02-15T04:10:01;25.30;39.00
22290;DHT22;11313;50.116;8.424;2023-02-15T04:12:45;25.30;39.00
22290;DHT22;11313;50.116;8.424;2023-02-15T04:15:13;25.30;39.00
22290;DHT22;11313;50.116;8.424;2023-02-15T04:17:57;25.30;39.00
22290;DHT22;11313;50.116;8.424;2023-02-15T04:20:23;25.30;39.00
22290;DHT22;11313;50.116;8.424;2023-02-15T04:23:07;25.30;39.00
22290;DHT22;11313;50.116;8.424;2023-02-15T04:25:52;25.30;39.00
22290;DHT22;11313;50.116;8.424;2023-02-15T04:28:17;25.30;39.00
22290;DHT22;11313;50.116;8.424;2023-02-15T04:30:43;25.30;39.00
22290;DHT22;11313;50.116;8.424;2023-02-15T04:33:08;25.30;39.00
22290;DHT22;11313;50.116;8.424;2023-02-15T04:35:33;25.30;39.00
22290;DHT22;11313;50.116;8.424;2023-02-15T04:37:59;25.30;39.00
22290;DHT22;11313;50.116;8.424;2023-02-15T04:40:25;25.30;39.10
22290;DHT22;11313;50.116;8.424;2023-02-15T04:42:51;25.30;39.10
22290;DHT22;11313;50.116;8.424;2023-02-15T04:45:17;25.30;39.00
22290;DHT22;11313;50.116;8.424;2023-02-15T04:47:42;25.30;39.00
22290;DHT22;11313;50.116;8.424;2023-02-15T04:50:08;25.30;39.00
22290;DHT22;11313;50.116;8.424;2023-02-15T04:52:34;25.30;39.00
22290;DHT22;11313;50.116;8.424;2023-02-15T04:54:59;25.30;39.00
22290;DHT22;11313;50.116;8.424;2023-02-15T04:57:25;25.30;39.00
22290;DHT22;11313;50.116;8.424;2023-02-15T04:59:50;25.30;39.00
22290;DHT22;11313;50.116;8.424;2023-02-15T05:02:16;25.30;39.00
22290;DHT22;11313;50.116;8.424;2023-02-15T05:04:41;25.30;39.00
22290;DHT22;11313;50.116;8.424;2023-02-15T05:07:07;25.30;39.00
22290;DHT22;11313;50.116;8.424;2023-02-15T05:09:32;25.30;39.00
22290;DHT22;11313;50.116;8.424;2023-02-15T05:11:58;25.30;39.00
22290;DHT22;11313;50.116;8.424;2023-02-15T05:14:23;25.30;39.00
22290;DHT22;11313;50.116;8.424;2023-02-15T05:16:49;25.30;39.00
22290;DHT22;11313;50.116;8.424;2023-02-15T05:19:14;25.30;38.90
22290;DHT22;11313;50.116;8.424;2023-02-15T05:21:40;25.40;39.00
22290;DHT22;11313;50.116;8.424;2023-02-15T05:24:06;25.40;38.90
22290;DHT22;11313;50.116;8.424;2023-02-15T05:26:51;25.40;39.00
22290;DHT22;11313;50.116;8.424;2023-02-15T05:29:35;25.40;38.90
22290;DHT22;11313;50.116;8.424;2023-02-15T05:32:00;25.40;38.90
22290;DHT22;11313;50.116;8.424;2023-02-15T05:34:27;25.40;38.90
22290;DHT22;11313;50.116;8.424;2023-02-15T05:36:53;25.40;38.90
22290;DHT22;11313;50.116;8.424;2023-02-15T05:39:18;25.40;38.90
22290;DHT22;11313;50.116;8.424;2023-02-15T05:41:43;25.40;38.80
22290;DHT22;11313;50.116;8.424;2023-02-15T05:44:09;25.50;39.00
22290;DHT22;11313;50.116;8.424;2023-02-15T05:46:34;25.50;38.90
22290;DHT22;11313;50.116;8.424;2023-02-15T05:49:00;25.50;38.90
22290;DHT22;11313;50.116;8.424;2023-02-15T05:51:25;25.50;38.90
22290;DHT22;11313;50.116;8.424;2023-02-15T05:53:51;25.50;38.90
22290;DHT22;11313;50.116;8.424;2023-02-15T05:56:16;25.50;38.90
22290;DHT22;11313;50.116;8.424;2023-02-15T05:58:42;25.50;38.90
22290;DHT22;11313;50.116;8.424;2023-02-15T06:01:15;25.50;38.90
22290;DHT22;11313;50.116;8.424;2023-02-15T06:03:43;25.50;38.80
22290;DHT22;11313;50.116;8.424;2023-02-15T06:06:09;25.50;38.90
22290;DHT22;11313;50.116;8.424;2023-02-15T06:08:36;25.50;38.90
22290;DHT22;11313;50.116;8.424;2023-02-15T06:11:02;25.50;38.90
22290;DHT22;11313;50.116;8.424;2023-02-15T06:13:27;25.50;38.90
22290;DHT22;11313;50.116;8.424;2023-02-15T06:15:53;25.50;38.90
22290;DHT22;11313;50.116;8.424;2023-02-15T06:18:18;25.50;38.90
22290;DHT22;11313;50.116;8.424;2023-02-15T06:20:47;25.50;38.90
22290;DHT22;11313;50.116;8.424;2023-02-15T06:23:13;25.50;38.90
22290;DHT22;11313;50.116;8.424;2023-02-15T06:25:39;25.50;38.90
22290;DHT22;11313;50.116;8.424;2023-02-15T06:28:05;25.50;38.90
22290;DHT22;11313;50.116;8.424;2023-02-15T06:30:31;25.50;38.90
22290;DHT22;11313;50.116;8.424;2023-02-15T06:32:56;25.50;38.90
22290;DHT22;11313;50.116;8.424;2023-02-15T06:35:22;25.50;38.90
22290;DHT22;11313;50.116;8.424;2023-02-15T06:37:48;25.50;38.90
22290;DHT22;11313;50.116;8.424;2023-02-15T06:40:14;25.50;39.00
22290;DHT22;11313;50.116;8.424;2023-02-15T06:42:40;25.50;38.90
22290;DHT22;11313;50.116;8.424;2023-02-15T06:45:06;25.50;39.00
22290;DHT22;11313;50.116;8.424;2023-02-15T06:47:32;25.50;39.00
22290;DHT22;11313;50.116;8.424;2023-02-15T06:49:57;25.50;39.00
22290;DHT22;11313;50.116;8.424;2023-02-15T06:52:23;25.40;38.90
22290;DHT22;11313;50.116;8.424;2023-02-15T06:54:49;25.40;39.60
22290;DHT22;11313;50.116;8.424;2023-02-15T06:57:14;25.40;39.00
22290;DHT22;11313;50.116;8.424;2023-02-15T06:59:40;25.40;39.00
22290;DHT22;11313;50.116;8.424;2023-02-15T07:02:06;25.40;39.00
22290;DHT22;11313;50.116;8.424;2023-02-15T07:04:31;25.40;39.00
22290;DHT22;11313;50.116;8.424;2023-02-15T07:06:57;25.40;39.00
22290;DHT22;11313;50.116;8.424;2023-02-15T07:09:22;25.40;39.10
22290;DHT22;11313;50.116;8.424;2023-02-15T07:11:48;25.30;39.10
22290;DHT22;11313;50.116;8.424;2023-02-15T07:14:32;25.40;39.10
22290;DHT22;11313;50.116;8.424;2023-02-15T07:16:58;25.40;39.10
22290;DHT22;11313;50.116;8.424;2023-02-15T07:19:23;25.30;39.10
22290;DHT22;11313;50.116;8.424;2023-02-15T07:21:49;25.30;39.10
22290;DHT22;11313;50.116;8.424;2023-02-15T07:24:14;25.30;39.10
22290;DHT22;11313;50.116;8.424;2023-02-15T07:26:40;25.30;39.10
22290;DHT22;11313;50.116;8.424;2023-02-15T07:29:05;25.30;39.10
22290;DHT22;11313;50.116;8.424;2023-02-15T07:31:31;25.30;39.10
22290;DHT22;11313;50.116;8.424;2023-02-15T07:33:56;25.30;39.10
22290;DHT22;11313;50.116;8.424;2023-02-15T07:36:22;25.30;39.20
22290;DHT22;11313;50.116;8.424;2023-02-15T07:38:47;25.30;39.20
22290;DHT22;11313;50.116;8.424;2023-02-15T07:41:14;25.20;39.10
22290;DHT22;11313;50.116;8.424;2023-02-15T07:43:42;25.30;39.20
22290;DHT22;11313;50.116;8.424;2023-02-15T07:46:10;25.30;39.20
22290;DHT22;11313;50.116;8.424;2023-02-15T07:48:37;25.30;39.20
22290;DHT22;11313;50.116;8.424;2023-02-15T07:51:05;25.20;39.20
22290;DHT22;11313;50.116;8.424;2023-02-15T07:53:32;25.30;39.20
22290;DHT22;11313;50.116;8.424;2023-02-15T07:56:02;25.20;39.20
22290;DHT22;11313;50.116;8.424;2023-02-15T07:58:28;25.30;39.20
22290;DHT22;11313;50.116;8.424;2023-02-15T08:01:13;25.30;39.20
22290;DHT22;11313;50.116;8.424;2023-02-15T08:03:39;25.30;39.30
22290;DHT22;11313;50.116;8.424;2023-02-15T08:06:05;25.30;39.20
22290;DHT22;11313;50.116;8.424;2023-02-15T08:08:30;25.30;39.20
22290;DHT22;11313;50.116;8.424;2023-02-15T08:11:04;25.20;39.20
22290;DHT22;11313;50.116;8.424;2023-02-15T08:13:51;25.30;39.30
22290;DHT22;11313;50.116;8.424;2023-02-15T08:16:38;25.20;39.20
22290;DHT22;11313;50.116;8.424;2023-02-15T08:19:12;25.20;39.20
22290;DHT22;11313;50.116;8.424;2023-02-15T08:21:40;25.30;39.30
22290;DHT22;11313;50.116;8.424;2023-02-15T08:24:07;25.30;39.30
22290;DHT22;11313;50.116;8.424;2023-02-15T08:26:34;25.30;39.30
22290;DHT22;11313;50.116;8.424;2023-02-15T08:29:01;25.20;39.20
22290;DHT22;11313;50.116;8.424;2023-02-15T08:31:27;25.20;39.20
22290;DHT22;11313;50.116;8.424;2023-02-15T08:33:55;25.30;39.30
22290;DHT22;11313;50.116;8.424;2023-02-15T08:36:23;25.30;39.20
22290;DHT22;11313;50.116;8.424;2023-02-15T08:38:49;25.30;39.20
22290;DHT22;11313;50.116;8.424;2023-02-15T08:41:29;25.30;39.20
22290;DHT22;11313;50.116;8.424;2023-02-15T08:43:56;25.30;39.20
22290;DHT22;11313;50.116;8.424;2023-02-15T08:46:24;25.30;39.20
22290;DHT22;11313;50.116;8.424;2023-02-15T08:48:50;25.30;39.20
22290;DHT22;11313;50.116;8.424;2023-02-15T08:51:18;25.30;39.20
22290;DHT22;11313;50.116;8.424;2023-02-15T08:53:49;25.30;39.20
22290;DHT22;11313;50.116;8.424;2023-02-15T08:56:15;25.40;39.20
22290;DHT22;11313;50.116;8.424;2023-02-15T08:58:41;25.30;39.10
22290;DHT22;11313;50.116;8.424;2023-02-15T09:01:15;25.30;39.10
22290;DHT22;11313;50.116;8.424;2023-02-15T09:03:45;25.30;39.10
22290;DHT22;11313;50.116;8.424;2023-02-15T09:06:11;25.40;39.20
22290;DHT22;11313;50.116;8.424;2023-02-15T09:08:37;25.40;39.10
22290;DHT22;11313;50.116;8.424;2023-02-15T09:11:14;25.40;39.10
22290;DHT22;11313;50.116;8.424;2023-02-15T09:13:42;25.40;39.00
22290;DHT22;11313;50.116;8.424;2023-02-15T09:16:09;25.40;39.00
22290;DHT22;11313;50.116;8.424;2023-02-15T09:18:37;25.50;39.10
22290;DHT22;11313;50.116;8.424;2023-02-15T09:21:11;25.50;39.10
22290;DHT22;11313;50.116;8.424;2023-02-15T09:23:39;25.50;39.10
22290;DHT22;11313;50.116;8.424;2023-02-15T09:26:10;25.50;39.00
22290;DHT22;11313;50.116;8.424;2023-02-15T09:28:36;25.50;39.00
22290;DHT22;11313;50.116;8.424;2023-02-15T09:31:11;25.50;39.10
22290;DHT22;11313;50.116;8.424;2023-02-15T09:33:38;25.50;39.00
22290;DHT22;11313;50.116;8.424;2023-02-15T09:36:06;25.50;39.70
22290;DHT22;11313;50.116;8.424;2023-02-15T09:38:37;25.50;39.00
22290;DHT22;11313;50.116;8.424;2023-02-15T09:41:10;25.50;39.00
22290;DHT22;11313;50.116;8.424;2023-02-15T09:44:21;25.50;39.00
22290;DHT22;11313;50.116;8.424;2023-02-15T09:46:57;25.50;39.00
22290;DHT22;11313;50.116;8.424;2023-02-15T09:49:32;25.50;38.90
22290;DHT22;11313;50.116;8.424;2023-02-15T09:54:46;25.50;38.90
22290;DHT22;11313;50.116;8.424;2023-02-15T09:57:43;25.60;39.00
22290;DHT22;11313;50.116;8.424;2023-02-15T10:05:54;25.50;38.90
22290;DHT22;11313;50.116;8.424;2023-02-15T10:11:32;25.50;38.90
22290;DHT22;11313;50.116;8.424;2023-02-15T10:17:13;25.50;39.00
22290;DHT22;11313;50.116;8.424;2023-02-15T10:27:45;25.50;39.00
22290;DHT22;11313;50.116;8.424;2023-02-15T10:30:15;25.50;39.00
22290;DHT22;11313;50.116;8.424;2023-02-15T10:37:46;25.50;39.10
22290;DHT22;11313;50.116;8.424;2023-02-15T10:40:22;25.50;39.10
22290;DHT22;11313;50.116;8.424;2023-02-15T10:49:18;25.50;39.10
22290;DHT22;11313;50.116;8.424;2023-02-15T10:54:29;25.40;39.10
22290;DHT22;11313;50.116;8.424;2023-02-15T10:57:12;25.40;39.10
22290;DHT22;11313;50.116;8.424;2023-02-15T10:59:57;25.40;39.10
22290;DHT22;11313;50.116;8.424;2023-02-15T11:07:41;25.30;39.10
22290;DHT22;11313;50.116;8.424;2023-02-15T11:10:21;25.30;39.10
22290;DHT22;11313;50.116;8.424;2023-02-15T11:12:49;25.40;39.20
22290;DHT22;11313;50.116;8.424;2023-02-15T11:15:46;25.40;39.30
22290;DHT22;11313;50.116;8.424;2023-02-15T11:18:39;25.40;39.20
22290;DHT22;11313;50.116;8.424;2023-02-15T11:21:32;25.30;39.20
22290;DHT22;11313;50.116;8.424;2023-02-15T11:23:59;25.30;39.20
22290;DHT22;11313;50.116;8.424;2023-02-15T11:26:33;25.30;39.20
22290;DHT22;11313;50.116;8.424;2023-02-15T11:29:05;25.30;39.20
22290;DHT22;11313;50.116;8.424;2023-02-15T11:31:46;25.30;39.20
22290;DHT22;11313;50.116;8.424;2023-02-15T11:34:33;25.30;39.20
22290;DHT22;11313;50.116;8.424;2023-02-15T11:37:06;25.30;39.20
22290;DHT22;11313;50.116;8.424;2023-02-15T11:39:34;25.30;39.30
22290;DHT22;11313;50.116;8.424;2023-02-15T11:42:04;25.30;39.30
22290;DHT22;11313;50.116;8.424;2023-02-15T11:44:39;25.30;39.30
22290;DHT22;11313;50.116;8.424;2023-02-15T11:47:11;25.30;39.30
22290;DHT22;11313;50.116;8.424;2023-02-15T11:49:36;25.30;39.20
22290;DHT22;11313;50.116;8.424;2023-02-15T11:52:06;25.30;39.30
22290;DHT22;11313;50.116;8.424;2023-02-15T11:54:34;25.30;39.30
22290;DHT22;11313;50.116;8.424;2023-02-15T12:00:00;25.30;39.30
22290;DHT22;11313;50.116;8.424;2023-02-15T12:02:29;25.30;39.20
22290;DHT22;11313;50.116;8.424;2023-02-15T12:05:03;25.30;39.30
22290;DHT22;11313;50.116;8.424;2023-02-15T12:07:35;25.30;39.30
22290;DHT22;11313;50.116;8.424;2023-02-15T12:12:40;25.30;39.20
22290;DHT22;11313;50.116;8.424;2023-02-15T12:15:10;25.30;39.20
22290;DHT22;11313;50.116;8.424;2023-02-15T12:17:48;25.30;39.20
22290;DHT22;11313;50.116;8.424;2023-02-15T12:22:49;25.40;39.30
22290;DHT22;11313;50.116;8.424;2023-02-15T12:27:47;25.40;39.30
22290;DHT22;11313;50.116;8.424;2023-02-15T12:30:20;25.40;39.20
22290;DHT22;11313;50.116;8.424;2023-02-15T12:33:00;25.40;39.20
22290;DHT22;11313;50.116;8.424;2023-02-15T12:35:32;25.40;39.20
22290;DHT22;11313;50.116;8.424;2023-02-15T12:40:29;25.40;39.10
22290;DHT22;11313;50.116;8.424;2023-02-15T12:42:55;25.50;39.20
22290;DHT22;11313;50.116;8.424;2023-02-15T12:45:32;25.50;39.20
22290;DHT22;11313;50.116;8.424;2023-02-15T12:48:19;25.50;39.10
22290;DHT22;11313;50.116;8.424;2023-02-15T12:50:49;25.50;39.10
22290;DHT22;11313;50.116;8.424;2023-02-15T12:53:30;25.50;39.10
22290;DHT22;11313;50.116;8.424;2023-02-15T12:56:02;25.50;39.10
22290;DHT22;11313;50.116;8.424;2023-02-15T12:58:33;25.50;39.10
22290;DHT22;11313;50.116;8.424;2023-02-15T13:03:55;25.50;39.10
22290;DHT22;11313;50.116;8.424;2023-02-15T13:06:21;25.50;39.00
22290;DHT22;11313;50.116;8.424;2023-02-15T13:08:50;25.60;39.00
22290;DHT22;11313;50.116;8.424;2023-02-15T13:11:22;25.60;39.00
22290;DHT22;11313;50.116;8.424;2023-02-15T13:13:56;25.60;39.00
22290;DHT22;11313;50.116;8.424;2023-02-15T13:16:33;25.60;39.00
22290;DHT22;11313;50.116;8.424;2023-02-15T13:19:06;25.60;39.00
22290;DHT22;11313;50.116;8.424;2023-02-15T13:21:36;25.60;39.00
22290;DHT22;11313;50.116;8.424;2023-02-15T13:24:10;25.60;39.00
22290;DHT22;11313;50.116;8.424;2023-02-15T13:26:41;25.60;39.00
22290;DHT22;11313;50.116;8.424;2023-02-15T13:29:25;25.60;39.00
22290;DHT22;11313;50.116;8.424;2023-02-15T13:31:54;25.60;39.00
22290;DHT22;11313;50.116;8.424;2023-02-15T13:34:24;25.60;39.00
22290;DHT22;11313;50.116;8.424;2023-02-15T13:40:31;25.60;39.00
22290;DHT22;11313;50.116;8.424;2023-02-15T13:48:51;25.60;39.00
22290;DHT22;11313;50.116;8.424;2023-02-15T13:54:07;25.60;39.00
22290;DHT22;11313;50.116;8.424;2023-02-15T13:56:53;25.50;39.00
22290;DHT22;11313;50.116;8.424;2023-02-15T14:08:41;25.50;39.00
22290;DHT22;11313;50.116;8.424;2023-02-15T14:11:26;25.50;39.00
22290;DHT22;11313;50.116;8.424;2023-02-15T14:14:00;25.50;39.00
22290;DHT22;11313;50.116;8.424;2023-02-15T14:17:10;25.50;39.10
22290;DHT22;11313;50.116;8.424;2023-02-15T14:22:36;25.50;39.20
22290;DHT22;11313;50.116;8.424;2023-02-15T14:25:38;25.50;39.10
22290;DHT22;11313;50.116;8.424;2023-02-15T14:28:16;25.50;39.10
22290;DHT22;11313;50.116;8.424;2023-02-15T14:30:48;25.50;39.20
22290;DHT22;11313;50.116;8.424;2023-02-15T14:35:40;25.50;39.20
22290;DHT22;11313;50.116;8.424;2023-02-15T14:38:29;25.50;39.20
22290;DHT22;11313;50.116;8.424;2023-02-15T14:41:08;25.50;39.20
22290;DHT22;11313;50.116;8.424;2023-02-15T14:44:07;25.50;39.20
22290;DHT22;11313;50.116;8.424;2023-02-15T14:49:21;25.40;39.20
22290;DHT22;11313;50.116;8.424;2023-02-15T14:56:41;25.50;39.20
22290;DHT22;11313;50.116;8.424;2023-02-15T14:59:19;25.50;39.20
22290;DHT22;11313;50.116;8.424;2023-02-15T15:01:56;25.50;39.20
22290;DHT22;11313;50.116;8.424;2023-02-15T15:04:34;25.50;39.20
22290;DHT22;11313;50.116;8.424;2023-02-15T15:07:08;25.50;39.20
22290;DHT22;11313;50.116;8.424;2023-02-15T15:09:37;25.50;39.20
22290;DHT22;11313;50.116;8.424;2023-02-15T15:14:57;25.50;39.20
22290;DHT22;11313;50.116;8.424;2023-02-15T15:20:06;25.50;39.20
22290;DHT22;11313;50.116;8.424;2023-02-15T15:22:39;25.50;39.20
22290;DHT22;11313;50.116;8.424;2023-02-15T15:27:59;25.50;39.90
22290;DHT22;11313;50.116;8.424;2023-02-15T15:35:45;25.50;39.20
22290;DHT22;11313;50.116;8.424;2023-02-15T15:41:39;25.50;39.20
22290;DHT22;11313;50.116;8.424;2023-02-15T15:44:20;25.50;39.20
22290;DHT22;11313;50.116;8.424;2023-02-15T15:49:35;25.50;39.20
22290;DHT22;11313;50.116;8.424;2023-02-15T15:52:08;25.50;39.20
22290;DHT22;11313;50.116;8.424;2023-02-15T15:54:38;25.50;39.20
22290;DHT22;11313;50.116;8.424;2023-02-15T15:57:05;25.50;39.80
22290;DHT22;11313;50.116;8.424;2023-02-15T15:59:36;25.50;39.20
22290;DHT22;11313;50.116;8.424;2023-02-15T16:02:13;25.50;39.20
22290;DHT22;11313;50.116;8.424;2023-02-15T16:04:40;25.50;39.20
22290;DHT22;11313;50.116;8.424;2023-02-15T16:09:57;25.50;39.20
22290;DHT22;11313;50.116;8.424;2023-02-15T16:12:25;25.50;39.20
22290;DHT22;11313;50.116;8.424;2023-02-15T16:14:51;25.50;39.10
22290;DHT22;11313;50.116;8.424;2023-02-15T16:17:22;25.50;39.10
22290;DHT22;11313;50.116;8.424;2023-02-15T16:19:48;25.50;39.10
22290;DHT22;11313;50.116;8.424;2023-02-15T16:22:18;25.50;39.10
22290;DHT22;11313;50.116;8.424;2023-02-15T16:27:51;25.60;39.10
22290;DHT22;11313;50.116;8.424;2023-02-15T16:30:29;25.50;39.00
22290;DHT22;11313;50.116;8.424;2023-02-15T16:33:09;25.60;39.10
22290;DHT22;11313;50.116;8.424;2023-02-15T16:35:37;25.60;39.10
22290;DHT22;11313;50.116;8.424;2023-02-15T16:38:03;25.60;39.00
22290;DHT22;11313;50.116;8.424;2023-02-15T16:43:06;25.60;39.00
22290;DHT22;11313;50.116;8.424;2023-02-15T16:45:35;25.60;39.00
22290;DHT22;11313;50.116;8.424;2023-02-15T16:48:07;25.60;39.00
22290;DHT22;11313;50.116;8.424;2023-02-15T16:50:36;25.60;39.00
22290;DHT22;11313;50.116;8.424;2023-02-15T16:53:04;25.60;39.00
22290;DHT22;11313;50.116;8.424;2023-02-15T16:55:36;25.60;38.90
22290;DHT22;11313;50.116;8.424;2023-02-15T16:58:05;25.60;38.90
22290;DHT22;11313;50.116;8.424;2023-02-15T17:00:35;25.70;39.00
22290;DHT22;11313;50.116;8.424;2023-02-15T17:05:48;25.70;38.90
22290;DHT22;11313;50.116;8.424;2023-02-15T17:13:38;25.70;38.90
22290;DHT22;11313;50.116;8.424;2023-02-15T17:18:34;25.70;38.90
22290;DHT22;11313;50.116;8.424;2023-02-15T17:21:20;25.70;38.90
22290;DHT22;11313;50.116;8.424;2023-02-15T17:23:50;25.70;38.90
22290;DHT22;11313;50.116;8.424;2023-02-15T17:26:22;25.60;38.90
22290;DHT22;11313;50.116;8.424;2023-02-15T17:28:54;25.60;38.90
22290;DHT22;11313;50.116;8.424;2023-02-15T17:31:22;25.70;38.90
22290;DHT22;11313;50.116;8.424;2023-02-15T17:33:49;25.60;38.90
22290;DHT22;11313;50.116;8.424;2023-02-15T17:36:17;25.60;38.90
22290;DHT22;11313;50.116;8.424;2023-02-15T17:39:06;25.70;39.00
22290;DHT22;11313;50.116;8.424;2023-02-15T17:41:43;25.70;39.00
22290;DHT22;11313;50.116;8.424;2023-02-15T17:44:09;25.70;39.00
22290;DHT22;11313;50.116;8.424;2023-02-15T17:46:39;25.60;39.00
22290;DHT22;11313;50.116;8.424;2023-02-15T17:49:11;25.60;39.00
22290;DHT22;11313;50.116;8.424;2023-02-15T17:51:39;25.60;39.00
22290;DHT22;11313;50.116;8.424;2023-02-15T17:54:07;25.60;39.00
22290;DHT22;11313;50.116;8.424;2023-02-15T17:56:51;25.60;39.00
22290;DHT22;11313;50.116;8.424;2023-02-15T17:59:17;25.60;39.00
22290;DHT22;11313;50.116;8.424;2023-02-15T18:01:47;25.60;39.00
22290;DHT22;11313;50.116;8.424;2023-02-15T18:04:34;25.60;39.00
22290;DHT22;11313;50.116;8.424;2023-02-15T18:07:19;25.50;39.00
22290;DHT22;11313;50.116;8.424;2023-02-15T18:10:13;25.50;39.00
22290;DHT22;11313;50.116;8.424;2023-02-15T18:12:57;25.50;39.10
22290;DHT22;11313;50.116;8.424;2023-02-15T18:15:23;25.50;39.00
22290;DHT22;11313;50.116;8.424;2023-02-15T18:17:49;25.50;39.10
22290;DHT22;11313;50.116;8.424;2023-02-15T18:20:19;25.50;39.00
22290;DHT22;11313;50.116;8.424;2023-02-15T18:22:45;25.50;39.00
22290;DHT22;11313;50.116;8.424;2023-02-15T18:25:16;25.50;39.00
22290;DHT22;11313;50.116;8.424;2023-02-15T18:27:42;25.50;39.00